createdAt,value
2018-07-03T00:00:55.937Z,0
2018-07-03T00:02:05.745Z,4
2018-07-03T00:03:15.816Z,4
2018-07-03T00:04:25.893Z,4
2018-07-03T00:05:35.741Z,4
2018-07-03T00:06:45.868Z,4
2018-07-03T00:07:55.407Z,4
2018-07-03T00:09:05.503Z,4
2018-07-03T00:10:15.576Z,4
2018-07-03T00:11:25.405Z,4
2018-07-03T00:12:35.534Z,4
2018-07-03T00:13:45.607Z,0
2018-07-03T00:14:55.676Z,0
2018-07-03T00:16:05.207Z,0
2018-07-03T00:17:15.009Z,0
2018-07-03T00:18:25.146Z,0
2018-07-03T00:19:34.968Z,0
2018-07-03T00:20:45.036Z,4
2018-07-03T00:21:55.090Z,4
2018-07-03T00:23:04.344Z,4
2018-07-03T00:24:13.918Z,4
2018-07-03T00:25:23.716Z,4
2018-07-03T00:26:33.777Z,4
2018-07-03T00:27:43.852Z,4
2018-07-03T00:28:53.937Z,0
2018-07-03T00:30:03.245Z,4
2018-07-03T00:31:12.799Z,4
2018-07-03T00:32:22.891Z,4
2018-07-03T00:33:32.692Z,4
2018-07-03T00:34:42.488Z,4
2018-07-03T00:35:52.600Z,4
2018-07-03T00:37:02.154Z,4
2018-07-03T00:38:11.957Z,4
2018-07-03T00:39:22.036Z,4
2018-07-03T00:40:31.832Z,4
2018-07-03T00:41:41.672Z,8
2018-07-03T00:42:51.731Z,8
2018-07-03T00:44:01.806Z,4
2018-07-03T00:45:11.885Z,8
2018-07-03T00:46:21.691Z,8
2018-07-03T00:47:31.276Z,4
2018-07-03T00:48:41.362Z,8
2018-07-03T00:49:51.418Z,8
2018-07-03T00:51:00.942Z,8
2018-07-03T00:52:11.013Z,8
2018-07-03T00:53:21.141Z,12
2018-07-03T00:54:31.199Z,8
2018-07-03T00:55:41.380Z,12
2018-07-03T00:56:51.455Z,12
2018-07-03T00:58:01.517Z,12
2018-07-03T00:59:11.643Z,12
2018-07-03T01:00:21.452Z,16
2018-07-03T01:01:31.543Z,16
2018-07-03T01:02:41.065Z,16
2018-07-03T01:03:50.856Z,16
2018-07-03T01:05:00.990Z,16
2018-07-03T01:06:10.798Z,20
2018-07-03T01:07:20.860Z,20
2018-07-03T01:08:30.672Z,24
2018-07-03T01:09:40.741Z,24
2018-07-03T01:10:50.313Z,24
2018-07-03T01:12:00.393Z,28
2018-07-03T01:13:10.474Z,28
2018-07-03T01:14:20.543Z,28
2018-07-03T01:15:30.338Z,32
2018-07-03T01:16:40.462Z,36
2018-07-03T01:17:50.266Z,36
2018-07-03T01:19:00.335Z,40
2018-07-03T01:20:09.334Z,40
2018-07-03T01:21:19.419Z,44
2018-07-03T01:22:28.988Z,48
2018-07-03T01:23:39.087Z,48
2018-07-03T01:24:49.151Z,52
2018-07-03T01:25:58.956Z,56
2018-07-03T01:27:08.775Z,60
2018-07-03T01:28:18.899Z,64
2018-07-03T01:29:28.688Z,68
2018-07-03T01:30:38.755Z,72
2018-07-03T01:31:48.814Z,76
2018-07-03T01:32:58.596Z,84
2018-07-03T01:34:08.449Z,88
2018-07-03T01:35:18.243Z,92
2018-07-03T01:36:28.318Z,96
2018-07-03T01:37:38.383Z,104
2018-07-03T01:38:48.192Z,112
2018-07-03T01:39:58.023Z,116
2018-07-03T01:41:08.100Z,124
2018-07-03T01:42:17.911Z,132
2018-07-03T01:43:27.703Z,136
2018-07-03T01:44:37.757Z,144
2018-07-03T01:45:47.868Z,156
2018-07-03T01:46:57.397Z,164
2018-07-03T01:48:07.197Z,172
2018-07-03T01:49:17.284Z,180
2018-07-03T01:50:26.815Z,188
2018-07-03T01:51:36.684Z,200
2018-07-03T01:52:46.469Z,208
2018-07-03T01:53:56.260Z,220
2018-07-03T01:55:06.115Z,228
2018-07-03T01:56:15.652Z,240
2018-07-03T01:57:25.499Z,252
2018-07-03T01:58:35.556Z,264
2018-07-03T01:59:45.616Z,276
2018-07-03T02:00:55.404Z,288
2018-07-03T02:02:05.452Z,304
2018-07-03T02:03:15.314Z,316
2018-07-03T02:04:25.111Z,328
2018-07-03T02:05:34.905Z,348
2018-07-03T02:06:44.703Z,360
2018-07-03T02:07:54.490Z,376
2018-07-03T02:09:04.338Z,396
2018-07-03T02:10:13.857Z,408
2018-07-03T02:11:23.659Z,428
2018-07-03T02:12:33.734Z,444
2018-07-03T02:13:43.544Z,460
2018-07-03T02:14:53.663Z,480
2018-07-03T02:16:03.714Z,500
2018-07-03T02:17:13.503Z,520
2018-07-03T02:18:23.581Z,540
2018-07-03T02:19:33.105Z,556
2018-07-03T02:20:43.239Z,580
2018-07-03T02:21:53.029Z,600
2018-07-03T02:23:03.099Z,620
2018-07-03T02:24:13.167Z,640
2018-07-03T02:25:22.951Z,660
2018-07-03T02:26:32.811Z,684
2018-07-03T02:27:42.873Z,708
2018-07-03T02:28:52.680Z,728
2018-07-03T02:30:02.522Z,756
2018-07-03T02:31:12.614Z,772
2018-07-03T02:32:22.482Z,800
2018-07-03T02:33:32.561Z,820
2018-07-03T02:34:42.632Z,844
2018-07-03T02:35:52.763Z,864
2018-07-03T02:37:02.845Z,888
2018-07-03T02:38:13.014Z,908
2018-07-03T02:39:23.393Z,932
2018-07-03T02:40:33.482Z,956
2018-07-03T02:41:43.290Z,980
2018-07-03T02:42:53.106Z,1000
2018-07-03T02:44:03.252Z,1024
2018-07-03T02:45:13.065Z,1044
2018-07-03T02:46:22.869Z,1072
2018-07-03T02:47:32.957Z,1092
2018-07-03T02:48:43.013Z,1112
2018-07-03T02:49:53.143Z,1140
2018-07-03T02:51:03.212Z,1160
2018-07-03T02:52:13.269Z,1184
2018-07-03T02:53:23.067Z,1204
2018-07-03T02:54:32.875Z,1228
2018-07-03T02:55:43.012Z,1248
2018-07-03T02:56:53.091Z,1272
2018-07-03T02:58:03.179Z,1292
2018-07-03T02:59:13.244Z,1316
2018-07-03T03:03:33.377Z,1400
2018-07-03T03:04:43.197Z,1420
2018-07-03T03:05:52.756Z,1444
2018-07-03T03:07:02.017Z,1468
2018-07-03T03:08:12.018Z,1492
2018-07-03T03:09:21.963Z,1512
2018-07-03T03:10:31.766Z,1536
2018-07-03T03:11:41.571Z,1556
2018-07-03T03:12:51.381Z,1580
2018-07-03T03:14:01.491Z,1600
2018-07-03T03:15:11.084Z,1624
2018-07-03T03:16:21.160Z,1644
2018-07-03T03:17:31.245Z,1668
2018-07-03T03:18:41.055Z,1692
2018-07-03T03:19:50.843Z,1712
2018-07-03T03:21:00.716Z,1732
2018-07-03T03:22:10.764Z,1752
2018-07-03T03:23:20.860Z,1776
2018-07-03T03:24:30.126Z,1796
2018-07-03T03:25:39.380Z,1816
2018-07-03T03:26:49.228Z,1836
2018-07-03T03:27:59.374Z,1856
2018-07-03T03:29:09.158Z,1876
2018-07-03T03:30:18.956Z,1896
2018-07-03T03:31:29.058Z,1912
2018-07-03T03:32:38.912Z,1936
2018-07-03T03:33:48.976Z,1956
2018-07-03T03:34:58.787Z,1972
2018-07-03T03:36:08.038Z,1988
2018-07-03T03:37:18.109Z,2008
2018-07-03T03:38:28.245Z,2032
2018-07-03T03:39:38.319Z,2048
2018-07-03T03:40:48.116Z,2068
2018-07-03T03:41:57.919Z,2084
2018-07-03T03:43:08.008Z,2104
2018-07-03T03:44:18.136Z,2124
2018-07-03T03:45:28.218Z,2140
2018-07-03T03:46:38.021Z,2160
2018-07-03T03:47:47.833Z,2172
2018-07-03T03:48:57.899Z,2192
2018-07-03T03:50:07.770Z,2208
2018-07-03T03:51:17.567Z,2224
2018-07-03T03:52:27.626Z,2244
2018-07-03T03:53:37.706Z,2256
2018-07-03T03:54:47.801Z,2272
2018-07-03T03:55:57.656Z,2288
2018-07-03T03:57:06.910Z,2304
2018-07-03T03:58:16.720Z,2320
2018-07-03T03:59:26.521Z,2332
2018-07-03T04:00:36.315Z,2344
2018-07-03T04:01:46.167Z,2360
2018-07-03T04:02:55.954Z,2376
2018-07-03T04:04:05.755Z,2384
2018-07-03T04:05:15.017Z,2400
2018-07-03T04:06:24.840Z,2412
2018-07-03T04:07:34.948Z,2424
2018-07-03T04:08:44.478Z,2436
2018-07-03T04:09:54.271Z,2448
2018-07-03T04:11:04.366Z,2456
2018-07-03T04:12:13.352Z,2468
2018-07-03T04:13:22.932Z,2480
2018-07-03T04:14:32.191Z,2488
2018-07-03T04:15:42.269Z,2500
2018-07-03T04:16:52.070Z,2508
2018-07-03T04:18:02.120Z,2520
2018-07-03T04:19:12.216Z,2528
2018-07-03T04:20:22.283Z,2540
2018-07-03T04:21:32.368Z,2544
2018-07-03T04:22:42.164Z,2560
2018-07-03T04:23:52.229Z,2568
2018-07-03T04:25:02.084Z,2576
2018-07-03T04:26:11.340Z,2588
2018-07-03T04:27:21.433Z,2592
2018-07-03T04:28:31.502Z,2604
2018-07-03T04:29:41.543Z,2616
2018-07-03T04:30:51.660Z,2624
2018-07-03T04:32:01.727Z,2632
2018-07-03T04:33:11.256Z,2640
2018-07-03T04:34:20.786Z,2652
2018-07-03T04:35:30.592Z,2660
2018-07-03T04:36:40.436Z,2668
2018-07-03T04:37:50.514Z,2680
2018-07-03T04:39:00.306Z,2688
2018-07-03T04:40:10.119Z,2700
2018-07-03T04:41:19.984Z,2708
2018-07-03T04:42:28.967Z,2716
2018-07-03T04:43:39.054Z,2724
2018-07-03T04:44:48.857Z,2736
2018-07-03T04:45:58.662Z,2744
2018-07-03T04:47:08.471Z,2752
2018-07-03T04:48:18.331Z,2760
2018-07-03T04:49:27.856Z,2768
2018-07-03T04:50:37.655Z,2772
2018-07-03T04:51:47.738Z,2780
2018-07-03T04:52:57.797Z,2792
2018-07-03T04:54:07.636Z,2796
2018-07-03T04:55:17.698Z,2808
2018-07-03T04:56:27.520Z,2816
2018-07-03T04:57:37.330Z,2824
2018-07-03T04:58:47.396Z,2828
2018-07-03T04:59:57.511Z,2832
2018-07-03T05:01:06.773Z,2844
2018-07-03T05:02:16.309Z,2852
2018-07-03T05:03:25.827Z,2856
2018-07-03T05:04:35.923Z,2864
2018-07-03T05:05:46.041Z,2872
2018-07-03T05:06:56.107Z,2880
2018-07-03T05:08:05.956Z,2884
2018-07-03T05:09:15.749Z,2892
2018-07-03T05:10:25.532Z,2900
2018-07-03T05:11:35.396Z,2908
2018-07-03T05:12:45.207Z,2912
2018-07-03T05:13:55.283Z,2920
2018-07-03T05:15:05.083Z,2928
2018-07-03T05:16:15.169Z,2932
2018-07-03T05:17:25.118Z,2940
2018-07-03T05:18:35.009Z,2944
2018-07-03T05:19:44.807Z,2948
2018-07-03T05:20:54.893Z,2956
2018-07-03T05:22:04.440Z,2960
2018-07-03T05:23:14.329Z,2964
2018-07-03T05:24:24.403Z,2968
2018-07-03T05:25:33.677Z,2976
2018-07-03T05:26:43.467Z,2980
2018-07-03T05:27:53.260Z,2988
2018-07-03T05:29:03.398Z,2988
2018-07-03T05:30:13.187Z,2996
2018-07-03T05:31:23.368Z,2996
2018-07-03T05:32:33.260Z,3008
2018-07-03T05:33:43.062Z,3008
2018-07-03T05:34:52.647Z,3016
2018-07-03T05:36:02.711Z,3020
2018-07-03T05:37:12.575Z,3024
2018-07-03T05:38:22.472Z,3032
2018-07-03T05:39:31.740Z,3032
2018-07-03T05:40:41.046Z,3040
2018-07-03T05:41:50.302Z,3044
2018-07-03T05:43:00.800Z,3048
2018-07-03T05:44:10.957Z,3052
2018-07-03T05:45:21.021Z,3060
2018-07-03T05:46:31.157Z,3064
2018-07-03T05:47:40.700Z,3072
2018-07-03T05:48:50.230Z,3076
2018-07-03T05:50:00.310Z,3080
2018-07-03T05:51:10.090Z,3080
2018-07-03T05:52:19.955Z,3084
2018-07-03T05:53:29.747Z,3084
2018-07-03T05:54:39.282Z,3088
2018-07-03T05:55:49.358Z,3092
2018-07-03T05:56:59.447Z,3096
2018-07-03T05:58:09.047Z,3104
2018-07-03T05:59:19.114Z,3112
2018-07-03T06:00:29.203Z,3112
2018-07-03T06:01:39.011Z,3116
2018-07-03T06:02:49.093Z,3120
2018-07-03T06:03:59.447Z,3124
2018-07-03T06:05:09.065Z,3128
2018-07-03T06:06:19.140Z,3136
2018-07-03T06:07:28.939Z,3140
2018-07-03T06:08:38.471Z,3144
2018-07-03T06:09:48.808Z,3152
2018-07-03T06:10:58.901Z,3156
2018-07-03T06:12:08.446Z,3160
2018-07-03T06:13:18.617Z,3172
2018-07-03T06:14:28.437Z,3172
2018-07-03T06:15:38.750Z,3180
2018-07-03T06:16:48.771Z,3188
2018-07-03T06:17:58.585Z,3192
2018-07-03T06:19:08.119Z,3192
2018-07-03T06:20:17.944Z,3204
2018-07-03T06:21:27.798Z,3208
2018-07-03T06:22:37.868Z,3208
2018-07-03T06:23:47.970Z,3228
2018-07-03T06:24:57.786Z,3224
2018-07-03T06:26:07.592Z,3224
2018-07-03T06:27:17.730Z,3244
2018-07-03T06:28:27.808Z,3236
2018-07-03T06:29:37.619Z,3236
2018-07-03T06:30:47.955Z,3244
2018-07-03T06:31:57.747Z,3244
2018-07-03T06:33:07.323Z,3252
2018-07-03T06:34:17.547Z,3260
2018-07-03T06:35:27.638Z,3268
2018-07-03T06:36:37.445Z,3268
2018-07-03T06:37:47.602Z,3280
2018-07-03T06:38:58.323Z,3280
2018-07-03T06:40:08.404Z,3288
2018-07-03T06:41:18.499Z,3292
2018-07-03T06:42:28.927Z,3296
2018-07-03T06:43:38.735Z,3296
2018-07-03T06:44:48.997Z,3304
2018-07-03T06:45:58.873Z,3308
2018-07-03T06:47:08.392Z,3312
2018-07-03T06:48:18.199Z,3320
2018-07-03T06:49:28.273Z,3320
2018-07-03T06:50:37.312Z,3332
2018-07-03T06:51:46.978Z,3332
2018-07-03T06:52:57.569Z,3340
2018-07-03T06:54:07.651Z,3348
2018-07-03T06:55:17.179Z,3348
2018-07-03T06:56:27.048Z,3356
2018-07-03T06:57:36.936Z,3360
2018-07-03T06:58:46.755Z,3364
2018-07-03T06:59:56.840Z,3368
2018-07-03T07:01:06.379Z,3376
2018-07-03T07:02:16.285Z,3384
2018-07-03T07:03:26.355Z,3388
2018-07-03T07:04:36.433Z,3392
2018-07-03T07:05:46.488Z,3396
2018-07-03T07:06:56.561Z,3404
2018-07-03T07:08:06.142Z,3408
2018-07-03T07:09:17.066Z,3416
2018-07-03T07:10:27.100Z,3420
2018-07-03T07:11:36.924Z,3428
2018-07-03T07:12:46.989Z,3428
2018-07-03T07:13:57.127Z,3436
2018-07-03T07:15:07.814Z,3436
2018-07-03T07:16:18.014Z,3444
2018-07-03T07:17:27.813Z,3452
2018-07-03T07:18:37.859Z,3452
2018-07-03T07:19:48.023Z,3452
2018-07-03T07:20:57.838Z,3468
2018-07-03T07:22:07.641Z,3480
2018-07-03T07:23:17.263Z,3480
2018-07-03T07:24:27.369Z,3484
2018-07-03T07:25:37.224Z,3496
2018-07-03T07:26:47.027Z,3492
2018-07-03T07:27:56.839Z,3500
2018-07-03T07:29:06.637Z,3504
2018-07-03T07:30:16.784Z,3508
2018-07-03T07:31:26.645Z,3516
2018-07-03T07:32:36.730Z,3520
2018-07-03T07:33:46.538Z,3532
2018-07-03T07:34:56.336Z,3536
2018-07-03T07:36:05.865Z,3540
2018-07-03T07:37:15.751Z,3540
2018-07-03T07:38:25.283Z,3544
2018-07-03T07:39:35.360Z,3552
2018-07-03T07:40:45.159Z,3560
2018-07-03T07:41:55.237Z,3572
2018-07-03T07:43:05.092Z,3568
2018-07-03T07:44:14.909Z,3580
2018-07-03T07:45:24.994Z,3584
2018-07-03T07:46:34.583Z,3592
2018-07-03T07:47:44.405Z,3600
2018-07-03T07:48:54.565Z,3600
2018-07-03T07:50:04.376Z,3600
2018-07-03T07:51:14.454Z,3608
2018-07-03T07:52:24.529Z,3612
2018-07-03T07:53:34.609Z,3620
2018-07-03T07:54:44.743Z,3624
2018-07-03T07:55:54.596Z,3636
2018-07-03T07:57:04.390Z,3652
2018-07-03T07:58:14.182Z,3656
2018-07-03T07:59:23.976Z,3660
2018-07-03T08:00:34.082Z,3672
2018-07-03T08:01:44.184Z,3680
2018-07-03T08:02:53.712Z,3688
2018-07-03T08:04:02.995Z,3700
2018-07-03T08:05:13.091Z,3704
2018-07-03T08:06:22.929Z,3708
2018-07-03T08:07:32.737Z,3720
2018-07-03T08:08:42.551Z,3732
2018-07-03T08:09:52.373Z,3736
2018-07-03T08:11:02.190Z,3748
2018-07-03T08:12:11.780Z,3752
2018-07-03T08:13:22.020Z,3764
2018-07-03T08:14:31.994Z,3772
2018-07-03T08:15:41.797Z,3776
2018-07-03T08:16:51.328Z,3788
2018-07-03T08:18:00.920Z,3796
2018-07-03T08:19:10.922Z,3808
2018-07-03T08:20:21.009Z,3820
2018-07-03T08:21:31.092Z,3832
2018-07-03T08:22:41.148Z,3848
2018-07-03T08:23:51.262Z,3856
2018-07-03T08:25:01.343Z,3864
2018-07-03T08:26:11.409Z,3880
2018-07-03T08:27:21.475Z,3892
2018-07-03T08:28:31.564Z,3900
2018-07-03T08:29:41.711Z,3912
2018-07-03T08:30:51.789Z,3928
2018-07-03T08:32:01.917Z,3932
2018-07-03T08:33:11.720Z,3940
2018-07-03T08:34:21.503Z,3956
2018-07-03T08:35:31.627Z,3964
2018-07-03T08:36:41.700Z,3980
2018-07-03T08:37:51.639Z,3992
2018-07-03T08:39:01.828Z,4000
2018-07-03T08:40:11.642Z,4008
2018-07-03T08:41:21.747Z,4016
2018-07-03T08:42:31.544Z,4024
2018-07-03T08:43:41.357Z,4040
2018-07-03T08:44:51.425Z,4052
2018-07-03T08:46:01.495Z,4064
2018-07-03T08:47:11.352Z,4064
2018-07-03T08:48:21.554Z,4076
2018-07-03T08:49:30.809Z,4080
2018-07-03T08:50:40.878Z,4092
2018-07-03T08:51:51.369Z,4100
2018-07-03T08:53:00.973Z,4108
2018-07-03T08:54:10.520Z,4116
2018-07-03T08:55:20.680Z,4124
2018-07-03T08:56:30.228Z,4132
2018-07-03T08:57:40.296Z,4140
2018-07-03T08:58:49.626Z,4140
2018-07-03T08:59:59.180Z,4152
2018-07-03T09:01:09.032Z,4160
2018-07-03T09:02:19.116Z,4164
2018-07-03T09:03:29.196Z,4176
2018-07-03T09:04:39.330Z,4184
2018-07-03T09:05:49.402Z,4192
2018-07-03T09:06:59.487Z,4200
2018-07-03T09:08:09.558Z,4212
2018-07-03T09:09:19.357Z,4220
2018-07-03T09:10:29.477Z,4236
2018-07-03T09:11:39.774Z,4244
2018-07-03T09:12:49.579Z,4256
2018-07-03T09:13:59.663Z,4268
2018-07-03T09:15:09.206Z,4276
2018-07-03T09:16:19.354Z,4288
2018-07-03T09:17:29.440Z,4304
2018-07-03T09:18:39.507Z,4312
2018-07-03T09:19:49.042Z,4324
2018-07-03T09:20:58.831Z,4344
2018-07-03T09:22:08.971Z,4352
2018-07-03T09:23:19.028Z,4368
2018-07-03T09:24:28.837Z,4376
2018-07-03T09:25:38.633Z,4384
2018-07-03T09:26:48.723Z,4404
2018-07-03T09:27:58.834Z,4416
2018-07-03T09:29:08.630Z,4432
2018-07-03T09:30:18.498Z,4440
2018-07-03T09:31:28.341Z,4452
2018-07-03T09:32:38.416Z,4464
2018-07-03T09:33:48.543Z,4472
2018-07-03T09:34:58.340Z,4484
2018-07-03T09:36:07.862Z,4496
2018-07-03T09:37:17.669Z,4504
2018-07-03T09:38:27.789Z,4520
2018-07-03T09:39:37.990Z,4532
2018-07-03T09:40:47.802Z,4544
2018-07-03T09:41:57.885Z,4552
2018-07-03T09:43:07.974Z,4568
2018-07-03T09:44:17.761Z,4576
2018-07-03T09:45:27.876Z,4588
2018-07-03T09:46:37.408Z,4596
2018-07-03T09:47:47.479Z,4604
2018-07-03T09:48:57.718Z,4616
2018-07-03T09:50:07.541Z,4640
2018-07-03T09:51:17.677Z,4648
2018-07-03T09:52:27.486Z,4656
2018-07-03T09:53:37.293Z,4660
2018-07-03T09:54:47.648Z,4676
2018-07-03T09:55:57.830Z,4684
2018-07-03T09:57:07.678Z,4696
2018-07-03T09:58:17.506Z,4704
2018-07-03T09:59:27.568Z,4716
2018-07-03T10:00:37.107Z,4724
2018-07-03T10:01:47.188Z,4736
2018-07-03T10:02:57.059Z,4744
2018-07-03T10:04:06.597Z,4756
2018-07-03T10:05:16.415Z,4764
2018-07-03T10:06:26.492Z,4772
2018-07-03T10:07:36.590Z,4780
2018-07-03T10:08:46.703Z,4788
2018-07-03T10:09:56.511Z,4800
2018-07-03T10:11:06.596Z,4816
2018-07-03T10:12:16.125Z,4824
2018-07-03T10:13:26.190Z,4832
2018-07-03T10:14:36.327Z,4848
2018-07-03T10:15:46.123Z,4856
2018-07-03T10:16:56.212Z,4868
2018-07-03T10:18:06.274Z,4876
2018-07-03T10:19:16.083Z,4888
2018-07-03T10:20:26.200Z,4900
2018-07-03T10:21:36.001Z,4908
2018-07-03T10:22:45.546Z,4920
2018-07-03T10:23:55.401Z,4928
2018-07-03T10:25:05.495Z,4940
2018-07-03T10:26:15.363Z,4952
2018-07-03T10:27:25.461Z,4964
2018-07-03T10:28:34.988Z,4976
2018-07-03T10:29:45.058Z,4984
2018-07-03T10:30:55.139Z,5000
2018-07-03T10:32:05.272Z,5012
2018-07-03T10:33:15.351Z,5020
2018-07-03T10:34:25.436Z,5028
2018-07-03T10:35:35.295Z,5040
2018-07-03T10:36:44.826Z,5052
2018-07-03T10:37:54.665Z,5060
2018-07-03T10:39:04.477Z,5072
2018-07-03T10:40:14.554Z,5088
2018-07-03T10:41:24.629Z,5092
2018-07-03T10:42:34.184Z,5100
2018-07-03T10:43:44.319Z,5108
2018-07-03T10:44:54.124Z,5116
2018-07-03T10:46:04.192Z,5124
2018-07-03T10:47:13.983Z,5140
2018-07-03T10:48:23.255Z,5152
2018-07-03T10:49:33.101Z,5168
2018-07-03T10:50:42.905Z,5176
2018-07-03T10:51:52.742Z,5188
2018-07-03T10:53:02.277Z,5192
2018-07-03T10:54:11.908Z,5200
2018-07-03T10:55:21.874Z,5212
2018-07-03T10:56:31.953Z,5216
2018-07-03T10:57:42.038Z,5224
2018-07-03T10:58:51.856Z,5232
2018-07-03T11:00:01.949Z,5252
2018-07-03T11:01:11.814Z,5264
2018-07-03T11:02:21.883Z,5272
2018-07-03T11:03:31.960Z,5292
2018-07-03T11:04:42.021Z,5308
2018-07-03T11:05:52.244Z,5316
2018-07-03T11:07:02.110Z,5332
2018-07-03T11:08:11.913Z,5344
2018-07-03T11:09:21.719Z,5360
2018-07-03T11:10:31.791Z,5376
2018-07-03T11:11:41.608Z,5408
2018-07-03T11:12:51.466Z,5416
2018-07-03T11:14:02.034Z,5452
2018-07-03T11:15:12.005Z,5444
2018-07-03T11:16:21.818Z,5468
2018-07-03T11:17:31.902Z,5488
2018-07-03T11:18:42.028Z,5496
2018-07-03T11:19:52.471Z,5524
2018-07-03T11:21:02.828Z,5572
2018-07-03T11:22:12.086Z,5592
2018-07-03T11:23:21.886Z,5608
2018-07-03T11:24:32.028Z,5620
2018-07-03T11:25:41.831Z,5632
2018-07-03T11:26:51.387Z,5664
2018-07-03T11:28:00.927Z,5680
2018-07-03T11:29:10.260Z,5680
2018-07-03T11:30:20.395Z,5700
2018-07-03T11:31:30.199Z,5720
2018-07-03T11:32:40.271Z,5764
2018-07-03T11:33:50.240Z,5836
2018-07-03T11:35:00.329Z,5880
2018-07-03T11:36:09.625Z,5908
2018-07-03T11:37:19.436Z,5984
2018-07-03T11:38:29.505Z,6280
2018-07-03T11:39:39.322Z,7016
2018-07-03T11:40:49.385Z,8916
2018-07-03T11:41:59.254Z,44864
2018-07-03T11:43:09.176Z,89824
2018-07-03T11:44:19.294Z,94816
2018-07-03T11:45:29.094Z,93696
2018-07-03T11:46:38.845Z,91264
2018-07-03T11:47:49.101Z,94784
2018-07-03T11:48:59.202Z,93696
2018-07-03T11:50:09.115Z,94688
2018-07-03T11:51:19.192Z,93472
2018-07-03T11:52:29.006Z,96896
2018-07-03T11:53:39.509Z,97056
2018-07-03T11:54:49.500Z,92864
2018-07-03T11:55:59.323Z,99456
2018-07-03T11:57:09.143Z,94880
2018-07-03T11:58:18.698Z,90912
2018-07-03T11:59:28.564Z,93312
2018-07-03T12:00:38.399Z,95680
2018-07-03T12:01:48.399Z,97184
2018-07-03T12:02:58.482Z,92864
2018-07-03T12:04:08.017Z,95488
2018-07-03T12:05:18.155Z,93568
2018-07-03T12:06:28.253Z,91680
2018-07-03T12:07:38.065Z,92256
2018-07-03T12:08:48.147Z,89824
2018-07-03T12:09:57.948Z,90624
2018-07-03T12:11:07.865Z,90272
2018-07-03T12:12:18.035Z,92128
2018-07-03T12:13:27.864Z,92576
2018-07-03T12:14:37.697Z,95040
2018-07-03T12:15:47.245Z,93824
2018-07-03T12:16:57.410Z,83392
2018-07-03T12:18:07.225Z,78848
2018-07-03T12:19:16.759Z,80480
2018-07-03T12:20:26.583Z,83680
2018-07-03T12:21:36.400Z,81440
2018-07-03T12:22:46.529Z,81120
2018-07-03T12:23:56.340Z,85184
2018-07-03T12:25:05.883Z,88928
2018-07-03T12:26:15.980Z,90080
2018-07-03T12:27:26.082Z,94368
2018-07-03T12:28:36.229Z,94944
2018-07-03T12:29:46.068Z,92704
2018-07-03T12:30:55.885Z,91968
2018-07-03T12:32:05.722Z,90176
2018-07-03T12:33:15.260Z,87168
2018-07-03T12:34:28.784Z,78720
2018-07-03T12:35:38.942Z,77440
2018-07-03T12:36:49.220Z,70432
2018-07-03T12:37:59.309Z,60768
2018-07-03T12:39:08.860Z,62752
2018-07-03T12:40:19.000Z,70080
2018-07-03T12:41:29.085Z,79616
2018-07-03T12:42:39.182Z,85056
2018-07-03T12:43:49.009Z,88032
2018-07-03T12:44:59.099Z,88096
2018-07-03T12:46:08.959Z,87264
2018-07-03T12:47:19.087Z,87520
2018-07-03T12:48:28.920Z,89152
2018-07-03T12:49:38.740Z,86624
2018-07-03T12:50:48.872Z,84064
2018-07-03T12:51:58.746Z,84448
2018-07-03T12:53:08.574Z,88128
2018-07-03T12:54:18.660Z,90144
2018-07-03T12:55:28.630Z,94112
2018-07-03T12:56:38.840Z,97632
2018-07-03T12:57:48.722Z,92736
2018-07-03T12:58:58.553Z,90464
2018-07-03T13:00:08.378Z,90880
2018-07-03T13:01:18.213Z,92128
2018-07-03T13:02:27.828Z,93376
2018-07-03T13:03:37.711Z,94944
2018-07-03T13:04:47.802Z,94912
2018-07-03T13:05:57.089Z,93248
2018-07-03T13:07:06.932Z,93536
2018-07-03T13:08:16.713Z,95680
2018-07-03T13:09:26.585Z,92928
2018-07-03T13:10:36.674Z,94944
2018-07-03T13:11:46.780Z,96192
2018-07-03T13:12:56.874Z,96096
2018-07-03T13:14:06.721Z,97408
2018-07-03T13:15:16.867Z,98208
2018-07-03T13:16:26.965Z,98752
2018-07-03T13:17:36.538Z,89344
2018-07-03T13:18:46.361Z,87872
2018-07-03T13:19:56.178Z,86976
2018-07-03T13:21:06.359Z,88256
2018-07-03T13:22:16.234Z,88768
2018-07-03T13:23:26.348Z,90720
2018-07-03T13:24:36.454Z,92832
2018-07-03T13:25:46.277Z,89216
2018-07-03T13:26:55.876Z,89472
2018-07-03T13:28:05.677Z,89056
2018-07-03T13:29:15.228Z,88224
2018-07-03T13:30:25.067Z,87072
2018-07-03T13:31:35.306Z,90496
2018-07-03T13:32:45.615Z,88928
2018-07-03T13:33:55.418Z,83040
2018-07-03T13:35:05.231Z,81344
2018-07-03T13:36:14.782Z,83456
2018-07-03T13:37:24.622Z,82240
2018-07-03T13:38:34.781Z,81760
2018-07-03T13:39:44.624Z,81856
2018-07-03T13:40:54.706Z,83488
2018-07-03T13:42:04.860Z,85824
2018-07-03T13:43:14.396Z,88480
2018-07-03T13:44:24.281Z,93408
2018-07-03T13:45:34.369Z,94400
2018-07-03T13:46:44.183Z,92704
2018-07-03T13:47:54.009Z,92416
2018-07-03T13:49:04.107Z,93952
2018-07-03T13:50:13.975Z,94656
2018-07-03T13:51:24.071Z,93888
2018-07-03T13:52:33.896Z,96288
2018-07-03T13:53:43.439Z,104032
2018-07-03T13:54:53.539Z,107936
2018-07-03T13:56:03.144Z,100736
2018-07-03T13:57:12.985Z,95680
2018-07-03T13:58:22.801Z,95136
2018-07-03T13:59:32.646Z,91296
2018-07-03T14:00:42.480Z,89984
2018-07-03T14:01:52.351Z,89536
2018-07-03T14:03:02.457Z,95776
2018-07-03T14:04:12.547Z,96576
2018-07-03T14:05:22.390Z,82592
2018-07-03T14:06:32.233Z,83200
2018-07-03T14:07:42.112Z,94720
2018-07-03T14:08:52.367Z,92896
2018-07-03T14:10:02.584Z,92576
2018-07-03T14:11:12.420Z,89504
2018-07-03T14:12:22.228Z,88192
2018-07-03T14:13:32.082Z,81152
2018-07-03T14:14:41.901Z,83040
2018-07-03T14:15:51.994Z,85408
2018-07-03T14:17:02.095Z,76224
2018-07-03T14:18:11.905Z,79904
2018-07-03T14:19:22.057Z,86016
2018-07-03T14:20:32.186Z,85120
2018-07-03T14:21:42.127Z,84672
2018-07-03T14:22:52.293Z,80928
2018-07-03T14:24:02.403Z,73344
2018-07-03T14:25:12.551Z,80096
2018-07-03T14:26:22.852Z,82144
2018-07-03T14:27:32.953Z,82336
2018-07-03T14:28:42.759Z,84832
2018-07-03T14:29:52.850Z,84192
2018-07-03T14:31:03.075Z,83968
2018-07-03T14:32:12.641Z,83552
2018-07-03T14:33:22.449Z,82656
2018-07-03T14:34:32.545Z,80512
2018-07-03T14:35:42.621Z,78336
2018-07-03T14:36:52.502Z,74656
2018-07-03T14:38:02.319Z,75776
2018-07-03T14:39:12.155Z,81984
2018-07-03T14:40:22.254Z,81504
2018-07-03T14:41:32.344Z,77632
2018-07-03T14:42:41.944Z,77824
2018-07-03T14:43:51.773Z,83776
2018-07-03T14:45:01.336Z,82464
2018-07-03T14:46:10.365Z,82080
2018-07-03T14:47:20.202Z,80736
2018-07-03T14:48:30.339Z,81536
2018-07-03T14:49:40.161Z,82304
2018-07-03T14:50:49.957Z,81920
2018-07-03T14:51:59.782Z,80448
2018-07-03T14:53:09.880Z,74048
2018-07-03T14:54:20.037Z,75648
2018-07-03T14:55:30.115Z,73760
2018-07-03T14:56:40.208Z,69760
2018-07-03T14:57:50.320Z,69696
2018-07-03T14:59:00.129Z,74304
2018-07-03T15:00:10.010Z,82848
2018-07-03T15:01:19.829Z,97760
2018-07-03T15:02:29.664Z,95360
2018-07-03T15:03:39.776Z,73632
2018-07-03T15:04:49.616Z,52352
2018-07-03T15:05:59.548Z,46208
2018-07-03T15:07:09.107Z,44864
2018-07-03T15:08:19.206Z,44320
2018-07-03T15:09:29.306Z,45280
2018-07-03T15:10:38.596Z,46432
2018-07-03T15:11:48.482Z,47392
2018-07-03T15:12:58.591Z,46944
2018-07-03T15:14:07.885Z,47392
2018-07-03T15:15:17.451Z,51392
2018-07-03T15:16:27.550Z,57184
2018-07-03T15:17:36.879Z,66720
2018-07-03T15:18:46.707Z,69280
2018-07-03T15:19:56.262Z,66944
2018-07-03T15:21:05.811Z,67072
2018-07-03T15:22:15.642Z,67808
2018-07-03T15:23:25.533Z,67168
2018-07-03T15:24:35.075Z,71104
2018-07-03T15:25:44.956Z,72096
2018-07-03T15:26:54.915Z,74144
2018-07-03T15:28:04.734Z,77536
2018-07-03T15:29:14.895Z,77536
2018-07-03T15:30:24.989Z,76000
2018-07-03T15:31:35.089Z,79584
2018-07-03T15:32:44.915Z,83328
2018-07-03T15:33:55.018Z,81984
2018-07-03T15:35:05.180Z,83488
2018-07-03T15:36:15.324Z,85792